sensor_id;sensor_type;location;lat;lon;timestamp;P1;P2;P0
63305;PMS5003;50735;52.060;1.248;2023-05-23T00:00:16;16;14;
63305;PMS5003;50735;52.060;1.248;2023-05-23T00:02:48;20;20;
63305;PMS5003;50735;52.060;1.248;2023-05-23T00:05:20;17;17;
63305;PMS5003;50735;52.060;1.248;2023-05-23T00:07:53;21;17;
63305;PMS5003;50735;52.060;1.248;2023-05-23T00:10:25;22;20;
63305;PMS5003;50735;52.060;1.248;2023-05-23T00:12:56;15;15;
63305;PMS5003;50735;52.060;1.248;2023-05-23T00:15:28;22;18;
63305;PMS5003;50735;52.060;1.248;2023-05-23T00:18:00;20;15;
63305;PMS5003;50735;52.060;1.248;2023-05-23T00:20:32;20;16;
63305;PMS5003;50735;52.060;1.248;2023-05-23T00:23:04;17;16;
63305;PMS5003;50735;52.060;1.248;2023-05-23T00:25:36;20;19;
63305;PMS5003;50735;52.060;1.248;2023-05-23T00:28:08;16;16;
63305;PMS5003;50735;52.060;1.248;2023-05-23T00:30:39;23;18;
63305;PMS5003;50735;52.060;1.248;2023-05-23T00:33:11;13;12;
63305;PMS5003;50735;52.060;1.248;2023-05-23T00:35:43;17;14;
63305;PMS5003;50735;52.060;1.248;2023-05-23T00:38:15;19;15;
63305;PMS5003;50735;52.060;1.248;2023-05-23T00:40:48;22;18;
63305;PMS5003;50735;52.060;1.248;2023-05-23T00:43:19;17;16;
63305;PMS5003;50735;52.060;1.248;2023-05-23T00:45:51;20;17;
63305;PMS5003;50735;52.060;1.248;2023-05-23T00:48:22;18;16;
63305;PMS5003;50735;52.060;1.248;2023-05-23T00:50:56;21;18;
63305;PMS5003;50735;52.060;1.248;2023-05-23T00:53:28;18;18;
63305;PMS5003;50735;52.060;1.248;2023-05-23T00:56:00;19;18;
63305;PMS5003;50735;52.060;1.248;2023-05-23T00:58:33;24;19;
63305;PMS5003;50735;52.060;1.248;2023-05-23T01:01:05;23;20;
63305;PMS5003;50735;52.060;1.248;2023-05-23T01:03:37;29;22;
63305;PMS5003;50735;52.060;1.248;2023-05-23T01:06:10;26;24;
63305;PMS5003;50735;52.060;1.248;2023-05-23T01:08:42;22;22;
63305;PMS5003;50735;52.060;1.248;2023-05-23T01:11:14;20;20;
63305;PMS5003;50735;52.060;1.248;2023-05-23T01:13:56;23;19;
63305;PMS5003;50735;52.060;1.248;2023-05-23T01:16:33;24;22;
63305;PMS5003;50735;52.060;1.248;2023-05-23T01:19:19;24;18;
63305;PMS5003;50735;52.060;1.248;2023-05-23T01:22:09;21;21;
63305;PMS5003;50735;52.060;1.248;2023-05-23T01:24:48;22;21;
63305;PMS5003;50735;52.060;1.248;2023-05-23T01:30:09;18;18;
63305;PMS5003;50735;52.060;1.248;2023-05-23T01:32:44;18;16;
63305;PMS5003;50735;52.060;1.248;2023-05-23T01:35:20;21;17;
63305;PMS5003;50735;52.060;1.248;2023-05-23T01:37:55;19;17;
63305;PMS5003;50735;52.060;1.248;2023-05-23T01:40:27;21;18;
63305;PMS5003;50735;52.060;1.248;2023-05-23T01:42:59;20;17;
63305;PMS5003;50735;52.060;1.248;2023-05-23T01:45:32;18;16;
63305;PMS5003;50735;52.060;1.248;2023-05-23T01:48:04;26;20;
63305;PMS5003;50735;52.060;1.248;2023-05-23T01:50:36;18;18;
63305;PMS5003;50735;52.060;1.248;2023-05-23T01:53:08;17;15;
63305;PMS5003;50735;52.060;1.248;2023-05-23T01:55:41;19;14;
63305;PMS5003;50735;52.060;1.248;2023-05-23T01:58:13;17;17;
63305;PMS5003;50735;52.060;1.248;2023-05-23T02:00:45;15;14;
63305;PMS5003;50735;52.060;1.248;2023-05-23T02:03:17;13;12;
63305;PMS5003;50735;52.060;1.248;2023-05-23T02:05:49;14;14;
63305;PMS5003;50735;52.060;1.248;2023-05-23T02:08:21;20;17;
63305;PMS5003;50735;52.060;1.248;2023-05-23T02:10:53;17;16;
63305;PMS5003;50735;52.060;1.248;2023-05-23T02:13:25;14;12;
63305;PMS5003;50735;52.060;1.248;2023-05-23T02:15:57;17;16;
63305;PMS5003;50735;52.060;1.248;2023-05-23T02:18:29;16;15;
63305;PMS5003;50735;52.060;1.248;2023-05-23T02:21:00;16;15;
63305;PMS5003;50735;52.060;1.248;2023-05-23T02:23:32;18;15;
63305;PMS5003;50735;52.060;1.248;2023-05-23T02:26:03;17;13;
63305;PMS5003;50735;52.060;1.248;2023-05-23T02:28:35;15;13;
63305;PMS5003;50735;52.060;1.248;2023-05-23T02:31:07;16;16;
63305;PMS5003;50735;52.060;1.248;2023-05-23T02:33:39;19;14;
63305;PMS5003;50735;52.060;1.248;2023-05-23T02:36:10;19;16;
63305;PMS5003;50735;52.060;1.248;2023-05-23T02:38:42;14;12;
63305;PMS5003;50735;52.060;1.248;2023-05-23T02:41:14;12;12;
63305;PMS5003;50735;52.060;1.248;2023-05-23T02:43:45;12;11;
63305;PMS5003;50735;52.060;1.248;2023-05-23T02:46:17;11;10;
63305;PMS5003;50735;52.060;1.248;2023-05-23T02:48:49;12;12;
63305;PMS5003;50735;52.060;1.248;2023-05-23T02:51:21;11;11;
63305;PMS5003;50735;52.060;1.248;2023-05-23T02:53:53;17;14;
63305;PMS5003;50735;52.060;1.248;2023-05-23T02:56:25;13;13;
63305;PMS5003;50735;52.060;1.248;2023-05-23T02:58:57;16;14;
63305;PMS5003;50735;52.060;1.248;2023-05-23T03:01:29;11;11;
63305;PMS5003;50735;52.060;1.248;2023-05-23T03:04:00;12;11;
63305;PMS5003;50735;52.060;1.248;2023-05-23T03:06:32;12;9;
63305;PMS5003;50735;52.060;1.248;2023-05-23T03:09:04;14;12;
63305;PMS5003;50735;52.060;1.248;2023-05-23T03:11:36;14;11;
63305;PMS5003;50735;52.060;1.248;2023-05-23T03:14:08;11;8;
63305;PMS5003;50735;52.060;1.248;2023-05-23T03:16:40;10;10;
63305;PMS5003;50735;52.060;1.248;2023-05-23T03:19:11;9;9;
63305;PMS5003;50735;52.060;1.248;2023-05-23T03:21:43;15;11;
63305;PMS5003;50735;52.060;1.248;2023-05-23T03:24:15;11;11;
63305;PMS5003;50735;52.060;1.248;2023-05-23T03:26:47;12;7;
63305;PMS5003;50735;52.060;1.248;2023-05-23T03:29:19;14;11;
63305;PMS5003;50735;52.060;1.248;2023-05-23T03:31:50;11;11;
63305;PMS5003;50735;52.060;1.248;2023-05-23T03:34:22;15;12;
63305;PMS5003;50735;52.060;1.248;2023-05-23T03:36:54;9;9;
63305;PMS5003;50735;52.060;1.248;2023-05-23T03:39:26;11;9;
63305;PMS5003;50735;52.060;1.248;2023-05-23T03:41:57;16;11;
63305;PMS5003;50735;52.060;1.248;2023-05-23T03:44:29;11;8;
63305;PMS5003;50735;52.060;1.248;2023-05-23T03:47:01;12;9;
63305;PMS5003;50735;52.060;1.248;2023-05-23T03:49:33;12;9;
63305;PMS5003;50735;52.060;1.248;2023-05-23T03:52:04;8;8;
63305;PMS5003;50735;52.060;1.248;2023-05-23T03:54:37;15;9;
63305;PMS5003;50735;52.060;1.248;2023-05-23T03:57:09;9;7;
63305;PMS5003;50735;52.060;1.248;2023-05-23T03:59:40;9;6;
63305;PMS5003;50735;52.060;1.248;2023-05-23T04:02:12;7;7;
63305;PMS5003;50735;52.060;1.248;2023-05-23T04:04:44;12;6;
63305;PMS5003;50735;52.060;1.248;2023-05-23T04:07:16;9;6;
63305;PMS5003;50735;52.060;1.248;2023-05-23T04:09:48;11;8;
63305;PMS5003;50735;52.060;1.248;2023-05-23T04:12:20;9;5;
63305;PMS5003;50735;52.060;1.248;2023-05-23T04:14:51;8;7;
63305;PMS5003;50735;52.060;1.248;2023-05-23T04:17:23;8;6;
63305;PMS5003;50735;52.060;1.248;2023-05-23T04:19:55;10;7;
63305;PMS5003;50735;52.060;1.248;2023-05-23T04:22:27;7;7;
63305;PMS5003;50735;52.060;1.248;2023-05-23T04:24:59;12;8;
63305;PMS5003;50735;52.060;1.248;2023-05-23T04:27:31;10;7;
63305;PMS5003;50735;52.060;1.248;2023-05-23T04:30:03;9;9;
63305;PMS5003;50735;52.060;1.248;2023-05-23T04:32:36;6;6;
63305;PMS5003;50735;52.060;1.248;2023-05-23T04:35:08;11;8;
63305;PMS5003;50735;52.060;1.248;2023-05-23T04:37:40;7;6;
63305;PMS5003;50735;52.060;1.248;2023-05-23T04:40:11;7;7;
63305;PMS5003;50735;52.060;1.248;2023-05-23T04:42:43;9;8;
63305;PMS5003;50735;52.060;1.248;2023-05-23T04:45:15;7;7;
63305;PMS5003;50735;52.060;1.248;2023-05-23T04:47:47;9;6;
63305;PMS5003;50735;52.060;1.248;2023-05-23T04:50:19;7;7;
63305;PMS5003;50735;52.060;1.248;2023-05-23T04:52:51;7;5;
63305;PMS5003;50735;52.060;1.248;2023-05-23T04:55:22;7;6;
63305;PMS5003;50735;52.060;1.248;2023-05-23T04:57:54;7;6;
63305;PMS5003;50735;52.060;1.248;2023-05-23T05:00:26;5;5;
63305;PMS5003;50735;52.060;1.248;2023-05-23T05:02:58;6;5;
63305;PMS5003;50735;52.060;1.248;2023-05-23T05:05:29;6;6;
63305;PMS5003;50735;52.060;1.248;2023-05-23T05:08:01;6;5;
63305;PMS5003;50735;52.060;1.248;2023-05-23T05:10:33;7;5;
63305;PMS5003;50735;52.060;1.248;2023-05-23T05:13:05;9;4;
63305;PMS5003;50735;52.060;1.248;2023-05-23T05:15:37;12;5;
63305;PMS5003;50735;52.060;1.248;2023-05-23T05:18:09;8;7;
63305;PMS5003;50735;52.060;1.248;2023-05-23T05:20:40;5;5;
63305;PMS5003;50735;52.060;1.248;2023-05-23T05:23:12;6;6;
63305;PMS5003;50735;52.060;1.248;2023-05-23T05:25:44;7;5;
63305;PMS5003;50735;52.060;1.248;2023-05-23T05:28:16;8;6;
63305;PMS5003;50735;52.060;1.248;2023-05-23T05:30:48;14;9;
63305;PMS5003;50735;52.060;1.248;2023-05-23T05:33:20;8;7;
63305;PMS5003;50735;52.060;1.248;2023-05-23T05:35:52;6;5;
63305;PMS5003;50735;52.060;1.248;2023-05-23T05:38:24;5;4;
63305;PMS5003;50735;52.060;1.248;2023-05-23T05:40:55;6;6;
63305;PMS5003;50735;52.060;1.248;2023-05-23T05:43:27;10;9;
63305;PMS5003;50735;52.060;1.248;2023-05-23T05:45:58;10;5;
63305;PMS5003;50735;52.060;1.248;2023-05-23T05:48:30;7;5;
63305;PMS5003;50735;52.060;1.248;2023-05-23T05:51:02;8;8;
63305;PMS5003;50735;52.060;1.248;2023-05-23T05:53:34;8;4;
63305;PMS5003;50735;52.060;1.248;2023-05-23T05:56:06;6;4;
63305;PMS5003;50735;52.060;1.248;2023-05-23T05:58:38;9;5;
63305;PMS5003;50735;52.060;1.248;2023-05-23T06:01:10;4;4;
63305;PMS5003;50735;52.060;1.248;2023-05-23T06:03:42;8;5;
63305;PMS5003;50735;52.060;1.248;2023-05-23T06:06:14;9;7;
63305;PMS5003;50735;52.060;1.248;2023-05-23T06:08:45;7;5;
63305;PMS5003;50735;52.060;1.248;2023-05-23T06:11:17;10;6;
63305;PMS5003;50735;52.060;1.248;2023-05-23T06:13:49;9;9;
63305;PMS5003;50735;52.060;1.248;2023-05-23T06:16:21;6;5;
63305;PMS5003;50735;52.060;1.248;2023-05-23T06:18:53;7;4;
63305;PMS5003;50735;52.060;1.248;2023-05-23T06:21:24;8;3;
63305;PMS5003;50735;52.060;1.248;2023-05-23T06:23:56;8;5;
63305;PMS5003;50735;52.060;1.248;2023-05-23T06:26:28;9;4;
63305;PMS5003;50735;52.060;1.248;2023-05-23T06:29:00;12;7;
63305;PMS5003;50735;52.060;1.248;2023-05-23T06:31:32;8;5;
63305;PMS5003;50735;52.060;1.248;2023-05-23T06:34:04;8;5;
63305;PMS5003;50735;52.060;1.248;2023-05-23T06:36:35;7;7;
63305;PMS5003;50735;52.060;1.248;2023-05-23T06:39:07;5;5;
63305;PMS5003;50735;52.060;1.248;2023-05-23T06:41:38;5;4;
63305;PMS5003;50735;52.060;1.248;2023-05-23T06:44:10;9;7;
63305;PMS5003;50735;52.060;1.248;2023-05-23T06:46:44;10;7;
63305;PMS5003;50735;52.060;1.248;2023-05-23T06:49:16;14;6;
63305;PMS5003;50735;52.060;1.248;2023-05-23T06:51:48;7;4;
63305;PMS5003;50735;52.060;1.248;2023-05-23T06:54:19;7;4;
63305;PMS5003;50735;52.060;1.248;2023-05-23T06:56:51;7;4;
63305;PMS5003;50735;52.060;1.248;2023-05-23T06:59:22;9;3;
63305;PMS5003;50735;52.060;1.248;2023-05-23T07:01:54;3;3;
63305;PMS5003;50735;52.060;1.248;2023-05-23T07:04:26;7;4;
63305;PMS5003;50735;52.060;1.248;2023-05-23T07:06:58;8;5;
63305;PMS5003;50735;52.060;1.248;2023-05-23T07:09:30;6;5;
63305;PMS5003;50735;52.060;1.248;2023-05-23T07:12:01;10;8;
63305;PMS5003;50735;52.060;1.248;2023-05-23T07:14:33;7;4;
63305;PMS5003;50735;52.060;1.248;2023-05-23T07:17:05;7;4;
63305;PMS5003;50735;52.060;1.248;2023-05-23T07:19:37;7;5;
63305;PMS5003;50735;52.060;1.248;2023-05-23T07:22:09;6;5;
63305;PMS5003;50735;52.060;1.248;2023-05-23T07:24:42;6;4;
63305;PMS5003;50735;52.060;1.248;2023-05-23T07:27:14;6;5;
63305;PMS5003;50735;52.060;1.248;2023-05-23T07:29:45;6;5;
63305;PMS5003;50735;52.060;1.248;2023-05-23T07:32:17;9;5;
63305;PMS5003;50735;52.060;1.248;2023-05-23T07:34:49;9;5;
63305;PMS5003;50735;52.060;1.248;2023-05-23T07:37:21;6;4;
63305;PMS5003;50735;52.060;1.248;2023-05-23T07:39:53;2;2;
63305;PMS5003;50735;52.060;1.248;2023-05-23T07:42:24;7;4;
63305;PMS5003;50735;52.060;1.248;2023-05-23T07:44:56;6;4;
63305;PMS5003;50735;52.060;1.248;2023-05-23T07:47:28;4;4;
63305;PMS5003;50735;52.060;1.248;2023-05-23T07:50:00;5;3;
63305;PMS5003;50735;52.060;1.248;2023-05-23T07:52:31;4;4;
63305;PMS5003;50735;52.060;1.248;2023-05-23T07:55:04;5;5;
63305;PMS5003;50735;52.060;1.248;2023-05-23T07:57:37;3;3;
63305;PMS5003;50735;52.060;1.248;2023-05-23T08:00:10;4;4;
63305;PMS5003;50735;52.060;1.248;2023-05-23T08:02:43;8;5;
63305;PMS5003;50735;52.060;1.248;2023-05-23T08:05:14;9;6;
63305;PMS5003;50735;52.060;1.248;2023-05-23T08:07:46;6;3;
63305;PMS5003;50735;52.060;1.248;2023-05-23T08:10:18;6;4;
63305;PMS5003;50735;52.060;1.248;2023-05-23T08:12:50;6;4;
63305;PMS5003;50735;52.060;1.248;2023-05-23T08:15:22;3;3;
63305;PMS5003;50735;52.060;1.248;2023-05-23T08:17:53;7;5;
63305;PMS5003;50735;52.060;1.248;2023-05-23T08:20:25;8;5;
63305;PMS5003;50735;52.060;1.248;2023-05-23T08:22:57;8;5;
63305;PMS5003;50735;52.060;1.248;2023-05-23T08:25:29;6;5;
63305;PMS5003;50735;52.060;1.248;2023-05-23T08:28:01;5;4;
63305;PMS5003;50735;52.060;1.248;2023-05-23T08:30:33;3;3;
63305;PMS5003;50735;52.060;1.248;2023-05-23T08:33:05;2;2;
63305;PMS5003;50735;52.060;1.248;2023-05-23T08:35:36;5;2;
63305;PMS5003;50735;52.060;1.248;2023-05-23T08:38:09;5;5;
63305;PMS5003;50735;52.060;1.248;2023-05-23T08:40:41;7;4;
63305;PMS5003;50735;52.060;1.248;2023-05-23T08:43:19;3;3;
63305;PMS5003;50735;52.060;1.248;2023-05-23T08:45:51;5;2;
63305;PMS5003;50735;52.060;1.248;2023-05-23T08:48:24;2;2;
63305;PMS5003;50735;52.060;1.248;2023-05-23T08:50:56;6;3;
63305;PMS5003;50735;52.060;1.248;2023-05-23T08:53:30;11;10;
63305;PMS5003;50735;52.060;1.248;2023-05-23T08:56:03;8;4;
63305;PMS5003;50735;52.060;1.248;2023-05-23T08:58:36;7;4;
63305;PMS5003;50735;52.060;1.248;2023-05-23T09:01:08;4;4;
63305;PMS5003;50735;52.060;1.248;2023-05-23T09:03:40;2;2;
63305;PMS5003;50735;52.060;1.248;2023-05-23T09:06:12;6;4;
63305;PMS5003;50735;52.060;1.248;2023-05-23T09:08:44;3;3;
63305;PMS5003;50735;52.060;1.248;2023-05-23T09:11:16;1;1;
63305;PMS5003;50735;52.060;1.248;2023-05-23T09:13:47;7;5;
63305;PMS5003;50735;52.060;1.248;2023-05-23T09:16:19;3;2;
63305;PMS5003;50735;52.060;1.248;2023-05-23T09:18:51;3;1;
63305;PMS5003;50735;52.060;1.248;2023-05-23T09:21:23;5;2;
63305;PMS5003;50735;52.060;1.248;2023-05-23T09:23:55;4;4;
63305;PMS5003;50735;52.060;1.248;2023-05-23T09:26:27;3;2;
63305;PMS5003;50735;52.060;1.248;2023-05-23T09:28:59;2;2;
63305;PMS5003;50735;52.060;1.248;2023-05-23T09:31:30;7;3;
63305;PMS5003;50735;52.060;1.248;2023-05-23T09:34:03;5;4;
63305;PMS5003;50735;52.060;1.248;2023-05-23T09:36:35;4;2;
63305;PMS5003;50735;52.060;1.248;2023-05-23T09:39:11;3;3;
63305;PMS5003;50735;52.060;1.248;2023-05-23T09:41:43;1;1;
63305;PMS5003;50735;52.060;1.248;2023-05-23T09:44:21;4;4;
63305;PMS5003;50735;52.060;1.248;2023-05-23T09:46:53;2;2;
63305;PMS5003;50735;52.060;1.248;2023-05-23T09:49:25;2;2;
63305;PMS5003;50735;52.060;1.248;2023-05-23T09:51:57;3;3;
63305;PMS5003;50735;52.060;1.248;2023-05-23T09:54:29;1;1;
63305;PMS5003;50735;52.060;1.248;2023-05-23T09:57:01;2;2;
63305;PMS5003;50735;52.060;1.248;2023-05-23T09:59:33;2;2;
63305;PMS5003;50735;52.060;1.248;2023-05-23T10:02:10;4;3;
63305;PMS5003;50735;52.060;1.248;2023-05-23T10:04:42;2;2;
63305;PMS5003;50735;52.060;1.248;2023-05-23T10:07:17;4;2;
63305;PMS5003;50735;52.060;1.248;2023-05-23T10:09:54;5;2;
63305;PMS5003;50735;52.060;1.248;2023-05-23T10:12:38;5;3;
63305;PMS5003;50735;52.060;1.248;2023-05-23T10:15:14;5;4;
63305;PMS5003;50735;52.060;1.248;2023-05-23T10:17:51;7;3;
63305;PMS5003;50735;52.060;1.248;2023-05-23T10:20:30;6;3;
63305;PMS5003;50735;52.060;1.248;2023-05-23T10:23:03;3;3;
63305;PMS5003;50735;52.060;1.248;2023-05-23T10:25:35;6;4;
63305;PMS5003;50735;52.060;1.248;2023-05-23T10:28:08;2;2;
63305;PMS5003;50735;52.060;1.248;2023-05-23T10:30:41;4;4;
63305;PMS5003;50735;52.060;1.248;2023-05-23T10:33:13;8;3;
63305;PMS5003;50735;52.060;1.248;2023-05-23T10:35:47;8;4;
63305;PMS5003;50735;52.060;1.248;2023-05-23T10:38:35;5;3;
63305;PMS5003;50735;52.060;1.248;2023-05-23T10:41:15;4;4;
63305;PMS5003;50735;52.060;1.248;2023-05-23T10:43:57;5;3;
63305;PMS5003;50735;52.060;1.248;2023-05-23T10:46:49;5;5;
63305;PMS5003;50735;52.060;1.248;2023-05-23T10:49:23;3;3;
63305;PMS5003;50735;52.060;1.248;2023-05-23T10:52:08;6;3;
63305;PMS5003;50735;52.060;1.248;2023-05-23T10:54:42;8;5;
63305;PMS5003;50735;52.060;1.248;2023-05-23T10:57:16;7;7;
63305;PMS5003;50735;52.060;1.248;2023-05-23T10:59:49;6;3;
63305;PMS5003;50735;52.060;1.248;2023-05-23T11:02:24;5;3;
63305;PMS5003;50735;52.060;1.248;2023-05-23T11:05:17;3;1;
63305;PMS5003;50735;52.060;1.248;2023-05-23T11:08:08;4;2;
63305;PMS5003;50735;52.060;1.248;2023-05-23T11:10:58;5;4;
63305;PMS5003;50735;52.060;1.248;2023-05-23T11:14:04;3;3;
63305;PMS5003;50735;52.060;1.248;2023-05-23T11:16:38;2;2;
63305;PMS5003;50735;52.060;1.248;2023-05-23T11:19:28;7;5;
63305;PMS5003;50735;52.060;1.248;2023-05-23T11:21:59;6;4;
63305;PMS5003;50735;52.060;1.248;2023-05-23T11:24:49;9;4;
63305;PMS5003;50735;52.060;1.248;2023-05-23T11:27:25;5;5;
63305;PMS5003;50735;52.060;1.248;2023-05-23T11:29:59;3;3;
63305;PMS5003;50735;52.060;1.248;2023-05-23T11:32:32;6;5;
63305;PMS5003;50735;52.060;1.248;2023-05-23T11:35:05;7;5;
63305;PMS5003;50735;52.060;1.248;2023-05-23T11:37:39;5;3;
63305;PMS5003;50735;52.060;1.248;2023-05-23T11:40:27;3;3;
63305;PMS5003;50735;52.060;1.248;2023-05-23T11:43:01;6;3;
63305;PMS5003;50735;52.060;1.248;2023-05-23T11:45:34;5;3;
63305;PMS5003;50735;52.060;1.248;2023-05-23T11:48:08;4;3;
63305;PMS5003;50735;52.060;1.248;2023-05-23T11:50:42;5;3;
63305;PMS5003;50735;52.060;1.248;2023-05-23T11:53:15;5;3;
63305;PMS5003;50735;52.060;1.248;2023-05-23T11:55:49;4;2;
63305;PMS5003;50735;52.060;1.248;2023-05-23T11:58:24;5;3;
63305;PMS5003;50735;52.060;1.248;2023-05-23T12:00:57;5;4;
63305;PMS5003;50735;52.060;1.248;2023-05-23T12:03:30;3;3;
63305;PMS5003;50735;52.060;1.248;2023-05-23T12:06:02;3;3;
63305;PMS5003;50735;52.060;1.248;2023-05-23T12:08:34;5;2;
63305;PMS5003;50735;52.060;1.248;2023-05-23T12:11:06;3;3;
63305;PMS5003;50735;52.060;1.248;2023-05-23T12:13:39;3;3;
63305;PMS5003;50735;52.060;1.248;2023-05-23T12:16:12;7;4;
63305;PMS5003;50735;52.060;1.248;2023-05-23T12:18:44;5;4;
63305;PMS5003;50735;52.060;1.248;2023-05-23T12:21:16;3;3;
63305;PMS5003;50735;52.060;1.248;2023-05-23T12:23:48;3;3;
63305;PMS5003;50735;52.060;1.248;2023-05-23T12:26:19;5;4;
63305;PMS5003;50735;52.060;1.248;2023-05-23T12:28:51;5;2;
63305;PMS5003;50735;52.060;1.248;2023-05-23T12:31:24;5;4;
63305;PMS5003;50735;52.060;1.248;2023-05-23T12:33:56;5;3;
63305;PMS5003;50735;52.060;1.248;2023-05-23T12:36:28;4;4;
63305;PMS5003;50735;52.060;1.248;2023-05-23T12:39:01;6;4;
63305;PMS5003;50735;52.060;1.248;2023-05-23T12:41:34;4;4;
63305;PMS5003;50735;52.060;1.248;2023-05-23T12:44:05;2;2;
63305;PMS5003;50735;52.060;1.248;2023-05-23T12:46:37;4;4;
63305;PMS5003;50735;52.060;1.248;2023-05-23T12:49:09;1;1;
63305;PMS5003;50735;52.060;1.248;2023-05-23T12:51:41;4;4;
63305;PMS5003;50735;52.060;1.248;2023-05-23T12:54:13;5;5;
63305;PMS5003;50735;52.060;1.248;2023-05-23T12:56:45;4;4;
63305;PMS5003;50735;52.060;1.248;2023-05-23T12:59:16;5;3;
63305;PMS5003;50735;52.060;1.248;2023-05-23T13:01:48;8;4;
63305;PMS5003;50735;52.060;1.248;2023-05-23T13:04:20;4;3;
63305;PMS5003;50735;52.060;1.248;2023-05-23T13:06:52;4;3;
63305;PMS5003;50735;52.060;1.248;2023-05-23T13:09:23;4;3;
63305;PMS5003;50735;52.060;1.248;2023-05-23T13:11:55;5;4;
63305;PMS5003;50735;52.060;1.248;2023-05-23T13:14:27;8;5;
63305;PMS5003;50735;52.060;1.248;2023-05-23T13:16:58;3;3;
63305;PMS5003;50735;52.060;1.248;2023-05-23T13:19:30;10;5;
63305;PMS5003;50735;52.060;1.248;2023-05-23T13:22:02;4;2;
63305;PMS5003;50735;52.060;1.248;2023-05-23T13:24:34;8;7;
63305;PMS5003;50735;52.060;1.248;2023-05-23T13:27:06;4;2;
63305;PMS5003;50735;52.060;1.248;2023-05-23T13:29:38;6;3;
63305;PMS5003;50735;52.060;1.248;2023-05-23T13:32:10;3;3;
63305;PMS5003;50735;52.060;1.248;2023-05-23T13:34:41;4;2;
63305;PMS5003;50735;52.060;1.248;2023-05-23T13:37:13;4;3;
63305;PMS5003;50735;52.060;1.248;2023-05-23T13:39:45;4;4;
63305;PMS5003;50735;52.060;1.248;2023-05-23T13:42:16;3;3;
63305;PMS5003;50735;52.060;1.248;2023-05-23T13:44:48;3;3;
63305;PMS5003;50735;52.060;1.248;2023-05-23T13:47:20;5;4;
63305;PMS5003;50735;52.060;1.248;2023-05-23T13:49:52;2;2;
63305;PMS5003;50735;52.060;1.248;2023-05-23T13:52:23;4;4;
63305;PMS5003;50735;52.060;1.248;2023-05-23T13:54:55;3;3;
63305;PMS5003;50735;52.060;1.248;2023-05-23T13:57:27;3;3;
63305;PMS5003;50735;52.060;1.248;2023-05-23T13:59:59;10;7;
63305;PMS5003;50735;52.060;1.248;2023-05-23T14:02:31;3;3;
63305;PMS5003;50735;52.060;1.248;2023-05-23T14:05:03;3;3;
63305;PMS5003;50735;52.060;1.248;2023-05-23T14:07:35;6;3;
63305;PMS5003;50735;52.060;1.248;2023-05-23T14:10:07;3;3;
63305;PMS5003;50735;52.060;1.248;2023-05-23T14:12:40;2;2;
63305;PMS5003;50735;52.060;1.248;2023-05-23T14:15:12;2;2;
63305;PMS5003;50735;52.060;1.248;2023-05-23T14:17:44;4;2;
63305;PMS5003;50735;52.060;1.248;2023-05-23T14:20:15;8;5;
63305;PMS5003;50735;52.060;1.248;2023-05-23T14:22:47;6;3;
63305;PMS5003;50735;52.060;1.248;2023-05-23T14:25:19;2;2;
63305;PMS5003;50735;52.060;1.248;2023-05-23T14:27:51;6;4;
63305;PMS5003;50735;52.060;1.248;2023-05-23T14:30:23;5;5;
63305;PMS5003;50735;52.060;1.248;2023-05-23T14:32:54;3;3;
63305;PMS5003;50735;52.060;1.248;2023-05-23T14:35:26;4;4;
63305;PMS5003;50735;52.060;1.248;2023-05-23T14:37:58;3;3;
63305;PMS5003;50735;52.060;1.248;2023-05-23T14:40:30;8;4;
63305;PMS5003;50735;52.060;1.248;2023-05-23T14:43:01;3;3;
63305;PMS5003;50735;52.060;1.248;2023-05-23T14:45:33;4;3;
63305;PMS5003;50735;52.060;1.248;2023-05-23T14:48:05;3;3;
63305;PMS5003;50735;52.060;1.248;2023-05-23T14:50:37;1;1;
63305;PMS5003;50735;52.060;1.248;2023-05-23T14:53:09;6;3;
63305;PMS5003;50735;52.060;1.248;2023-05-23T14:55:41;4;2;
63305;PMS5003;50735;52.060;1.248;2023-05-23T14:58:12;5;3;
63305;PMS5003;50735;52.060;1.248;2023-05-23T15:00:44;2;2;
63305;PMS5003;50735;52.060;1.248;2023-05-23T15:03:16;2;2;
63305;PMS5003;50735;52.060;1.248;2023-05-23T15:05:48;2;2;
63305;PMS5003;50735;52.060;1.248;2023-05-23T15:08:19;6;4;
63305;PMS5003;50735;52.060;1.248;2023-05-23T15:10:51;2;2;
63305;PMS5003;50735;52.060;1.248;2023-05-23T15:13:23;4;4;
63305;PMS5003;50735;52.060;1.248;2023-05-23T15:15:55;5;4;
63305;PMS5003;50735;52.060;1.248;2023-05-23T15:18:26;4;4;
63305;PMS5003;50735;52.060;1.248;2023-05-23T15:20:58;6;5;
63305;PMS5003;50735;52.060;1.248;2023-05-23T15:23:29;4;4;
63305;PMS5003;50735;52.060;1.248;2023-05-23T15:26:01;2;2;
63305;PMS5003;50735;52.060;1.248;2023-05-23T15:28:33;4;3;
63305;PMS5003;50735;52.060;1.248;2023-05-23T15:31:05;4;4;
63305;PMS5003;50735;52.060;1.248;2023-05-23T15:33:36;4;4;
63305;PMS5003;50735;52.060;1.248;2023-05-23T15:36:08;4;4;
63305;PMS5003;50735;52.060;1.248;2023-05-23T15:38:40;4;3;
63305;PMS5003;50735;52.060;1.248;2023-05-23T15:41:12;2;2;
63305;PMS5003;50735;52.060;1.248;2023-05-23T15:43:43;2;2;
63305;PMS5003;50735;52.060;1.248;2023-05-23T15:46:15;4;4;
63305;PMS5003;50735;52.060;1.248;2023-05-23T15:48:47;3;3;
63305;PMS5003;50735;52.060;1.248;2023-05-23T15:51:18;2;2;
63305;PMS5003;50735;52.060;1.248;2023-05-23T15:53:50;7;4;
63305;PMS5003;50735;52.060;1.248;2023-05-23T15:56:22;4;3;
63305;PMS5003;50735;52.060;1.248;2023-05-23T15:58:54;3;3;
63305;PMS5003;50735;52.060;1.248;2023-05-23T16:01:25;2;2;
63305;PMS5003;50735;52.060;1.248;2023-05-23T16:03:57;2;2;
63305;PMS5003;50735;52.060;1.248;2023-05-23T16:06:29;4;3;
63305;PMS5003;50735;52.060;1.248;2023-05-23T16:09:01;3;3;
63305;PMS5003;50735;52.060;1.248;2023-05-23T16:11:32;3;3;
63305;PMS5003;50735;52.060;1.248;2023-05-23T16:14:04;4;2;
63305;PMS5003;50735;52.060;1.248;2023-05-23T16:16:36;4;3;
63305;PMS5003;50735;52.060;1.248;2023-05-23T16:19:08;3;2;
63305;PMS5003;50735;52.060;1.248;2023-05-23T16:21:40;0;0;
63305;PMS5003;50735;52.060;1.248;2023-05-23T16:24:12;3;3;
63305;PMS5003;50735;52.060;1.248;2023-05-23T16:26:44;3;3;
63305;PMS5003;50735;52.060;1.248;2023-05-23T16:29:15;4;2;
63305;PMS5003;50735;52.060;1.248;2023-05-23T16:31:47;5;1;
63305;PMS5003;50735;52.060;1.248;2023-05-23T16:34:19;3;3;
63305;PMS5003;50735;52.060;1.248;2023-05-23T16:36:50;3;3;
63305;PMS5003;50735;52.060;1.248;2023-05-23T16:39:22;3;3;
63305;PMS5003;50735;52.060;1.248;2023-05-23T16:41:54;1;1;
63305;PMS5003;50735;52.060;1.248;2023-05-23T16:44:26;2;2;
63305;PMS5003;50735;52.060;1.248;2023-05-23T16:46:58;3;3;
63305;PMS5003;50735;52.060;1.248;2023-05-23T16:49:29;7;4;
63305;PMS5003;50735;52.060;1.248;2023-05-23T16:52:01;2;2;
63305;PMS5003;50735;52.060;1.248;2023-05-23T16:54:33;5;3;
63305;PMS5003;50735;52.060;1.248;2023-05-23T16:57:04;3;3;
63305;PMS5003;50735;52.060;1.248;2023-05-23T16:59:36;7;3;
63305;PMS5003;50735;52.060;1.248;2023-05-23T17:02:08;4;3;
63305;PMS5003;50735;52.060;1.248;2023-05-23T17:04:43;3;3;
63305;PMS5003;50735;52.060;1.248;2023-05-23T17:07:15;1;1;
63305;PMS5003;50735;52.060;1.248;2023-05-23T17:09:47;6;3;
63305;PMS5003;50735;52.060;1.248;2023-05-23T17:12:18;2;2;
63305;PMS5003;50735;52.060;1.248;2023-05-23T17:14:50;6;4;
63305;PMS5003;50735;52.060;1.248;2023-05-23T17:17:22;2;2;
63305;PMS5003;50735;52.060;1.248;2023-05-23T17:19:54;7;4;
63305;PMS5003;50735;52.060;1.248;2023-05-23T17:22:25;6;4;